Ms Signal — SFWL — position and weather

sailwx.info

Track history (hours):
 
Tides and Currents Weather Stations Pressure Air Temp Water Temp Dewpoint Dewpoint Depression Visibility Wind Speed Wind Dir Waves Ship Positions

Ms Signal

Last reported at 2015-Feb-27 10:24 UTC. Time now 2015-Mar-01 08:33 UTC.
Position N 59°21' E 018°08'.

Length 16 m.

Type: Diving. MMSI: 265648340.

Date/timePositionNaut miles runAvg speedWind from/ knotsBaromVisibWave heightAir tempDewpointWater temp
2015-Feb-27 10:24N 59°21' E 018°08'1 0.4
2015-Feb-27 06:33N 59°19' E 018°09'1 0.1
2015-Feb-26 13:13N 59°21' E 018°08'2 3.5
2015-Feb-26 12:32N 59°18' E 018°06'2 1.9
2015-Feb-26 11:33N 59°20' E 018°03'2 1.6
2015-Feb-26 10:33N 59°18' E 018°04'3 1.5
2015-Feb-26 08:32N 59°20' E 018°09'3 2.6
2015-Feb-26 07:33N 59°19' E 018°04'3 2.5
2015-Feb-26 06:33N 59°19' E 018°09'2 0.1
2015-Feb-25 14:26N 59°21' E 018°08'2 2.5
2015-Feb-25 13:33N 59°19' E 018°06'2 1.7
2015-Feb-25 12:33N 59°20' E 018°03'1 1.3
2015-Feb-25 11:33N 59°19' E 018°01'2 2.3
2015-Feb-25 10:33N 59°18' E 018°05'1 1.3
2015-Feb-25 09:33N 59°19' E 018°06'2 1.6
2015-Feb-25 08:34N 59°21' E 018°08'1 0.5
2015-Feb-25 07:33N 59°21' E 018°07'0 0.5
2015-Feb-25 06:32N 59°21' E 018°08'0 0.0
2015-Feb-24 14:23N 59°21' E 018°08'0 0.1
2015-Feb-24 13:33N 59°21' E 018°08'0 0.1
2015-Feb-24 12:25N 59°21' E 018°08'0 0.0
2015-Feb-24 11:31N 59°21' E 018°08'0 0.0
2015-Feb-24 10:26N 59°21' E 018°08'0 0.0
2015-Feb-24 08:24N 59°21' E 018°08'0 0.0
2015-Feb-24 07:29N 59°21' E 018°08'0 0.0
2015-Feb-24 06:31N 59°21' E 018°08'0 0.0
2015-Feb-23 14:30N 59°21' E 018°08'0 0.1
2015-Feb-23 13:33N 59°21' E 018°08'0 0.0
2015-Feb-23 11:26N 59°21' E 018°08'2 1.8
2015-Feb-23 10:33N 59°19' E 018°06'1 0.3
2015-Feb-23 08:28N 59°19' E 018°06'2 2.0
2015-Feb-23 07:31N 59°20' E 018°09'1 0.9
2015-Feb-23 06:33N 59°21' E 018°08'  
2015-Feb-20 10:26N 59°21' E 018°08'2 1.9
2015-Feb-20 09:33N 59°19' E 018°06'0 0.2
2015-Feb-20 08:33N 59°19' E 018°06'0 0.0
2015-Feb-20 07:33N 59°19' E 018°06'2 1.8
2015-Feb-20 06:30N 59°20' E 018°09'1 0.0
2015-Feb-19 14:14N 59°21' E 018°08'2 0.3
2015-Feb-19 08:10N 59°20' E 018°05'2 2.5
2015-Feb-19 07:29N 59°21' E 018°08'1 1.1
2015-Feb-19 06:18N 59°20' E 018°10'1 0.1
2015-Feb-18 13:32N 59°21' E 018°08'1 1.2
2015-Feb-18 12:17N 59°20' E 018°05'2 2.0
2015-Feb-18 11:31N 59°18' E 018°05'3 3.4
2015-Feb-18 10:33N 59°20' E 017°60'2 1.8
2015-Feb-18 09:33N 59°19' E 018°03'1 0.8
2015-Feb-18 08:33N 59°19' E 018°02'2 2.0
2015-Feb-18 07:33N 59°19' E 018°06'1 1.3
2015-Feb-18 06:30N 59°21' E 018°07'0 0.0
2015-Feb-17 11:13N 59°21' E 018°08'  
Track history (hours):
 
Tides and Currents Weather Stations Pressure Air Temp Water Temp Dewpoint Dewpoint Depression Visibility Wind Speed Wind Dir Waves Ship Positions

Ms Signal

Last reported at 2015-Feb-27 10:24 UTC. Time now 2015-Mar-01 08:33 UTC.
Position N 59°21' E 018°08'.

Length 16 m.

Type: Diving. MMSI: 265648340.

Date/timePositionNaut miles runAvg speedWind from/ knotsBaromVisibWave heightAir tempDewpointWater temp
2015-Feb-27 10:24N 59°21' E 018°08'1 0.4
2015-Feb-27 06:33N 59°19' E 018°09'1 0.1
2015-Feb-26 13:13N 59°21' E 018°08'2 3.5
2015-Feb-26 12:32N 59°18' E 018°06'2 1.9
2015-Feb-26 11:33N 59°20' E 018°03'2 1.6
2015-Feb-26 10:33N 59°18' E 018°04'3 1.5
2015-Feb-26 08:32N 59°20' E 018°09'3 2.6
2015-Feb-26 07:33N 59°19' E 018°04'3 2.5
2015-Feb-26 06:33N 59°19' E 018°09'2 0.1
2015-Feb-25 14:26N 59°21' E 018°08'2 2.5
2015-Feb-25 13:33N 59°19' E 018°06'2 1.7
2015-Feb-25 12:33N 59°20' E 018°03'1 1.3
2015-Feb-25 11:33N 59°19' E 018°01'2 2.3
2015-Feb-25 10:33N 59°18' E 018°05'1 1.3
2015-Feb-25 09:33N 59°19' E 018°06'2 1.6
2015-Feb-25 08:34N 59°21' E 018°08'1 0.5
2015-Feb-25 07:33N 59°21' E 018°07'0 0.5
2015-Feb-25 06:32N 59°21' E 018°08'0 0.0
2015-Feb-24 14:23N 59°21' E 018°08'0 0.1
2015-Feb-24 13:33N 59°21' E 018°08'0 0.1
2015-Feb-24 12:25N 59°21' E 018°08'0 0.0
2015-Feb-24 11:31N 59°21' E 018°08'0 0.0
2015-Feb-24 10:26N 59°21' E 018°08'0 0.0
2015-Feb-24 08:24N 59°21' E 018°08'0 0.0
2015-Feb-24 07:29N 59°21' E 018°08'0 0.0
2015-Feb-24 06:31N 59°21' E 018°08'0 0.0
2015-Feb-23 14:30N 59°21' E 018°08'0 0.1
2015-Feb-23 13:33N 59°21' E 018°08'0 0.0
2015-Feb-23 11:26N 59°21' E 018°08'2 1.8
2015-Feb-23 10:33N 59°19' E 018°06'1 0.3
2015-Feb-23 08:28N 59°19' E 018°06'2 2.0
2015-Feb-23 07:31N 59°20' E 018°09'1 0.9
2015-Feb-23 06:33N 59°21' E 018°08'  
2015-Feb-20 10:26N 59°21' E 018°08'2 1.9
2015-Feb-20 09:33N 59°19' E 018°06'0 0.2
2015-Feb-20 08:33N 59°19' E 018°06'0 0.0
2015-Feb-20 07:33N 59°19' E 018°06'2 1.8
2015-Feb-20 06:30N 59°20' E 018°09'1 0.0
2015-Feb-19 14:14N 59°21' E 018°08'2 0.3
2015-Feb-19 08:10N 59°20' E 018°05'2 2.5
2015-Feb-19 07:29N 59°21' E 018°08'1 1.1
2015-Feb-19 06:18N 59°20' E 018°10'1 0.1
2015-Feb-18 13:32N 59°21' E 018°08'1 1.2
2015-Feb-18 12:17N 59°20' E 018°05'2 2.0
2015-Feb-18 11:31N 59°18' E 018°05'3 3.4
2015-Feb-18 10:33N 59°20' E 017°60'2 1.8
2015-Feb-18 09:33N 59°19' E 018°03'1 0.8
2015-Feb-18 08:33N 59°19' E 018°02'2 2.0
2015-Feb-18 07:33N 59°19' E 018°06'1 1.3
2015-Feb-18 06:30N 59°21' E 018°07'0 0.0
2015-Feb-17 11:13N 59°21' E 018°08'  

Dump ship's entire track history